Terminal Aerodrome Forecast
Issued by NWS Charleston, WV

Current Version | Previous Version | Graphics & Text | Print | Product List | Glossary On
Versions: 1 2 3 4 5 6 7 8 9 10 11 12 13 14 15 16 17 18 19 20 21 22 23 24 25 26 27 28 29 30 31 32
000
FTUS41 KRLX 221131
TAFEKN
TAF
KEKN 221131Z 2212/2312 28008KT 3SM BR SKC
     FM221300 28009KT P6SM SCT200
     FM222000 27013G19KT P6SM BKN045
     FM230000 28010G16KT P6SM BKN035
     FM230200 30009KT P6SM SCT030
     FM230700 00000KT 3SM BR FEW030=

USA.gov is the U.S. government's official web portal to all federal, state and local government web resources and services.